Jury M — 3EOG2 — position and weather

sailwx.info

Track history (hours):
 
Tides and Currents Weather Stations Pressure Air Temp Water Temp Dewpoint Dewpoint Depression Visibility Wind Speed Wind Dir Waves Ship Positions

Jury M

Last reported at 2014-Dec-04 11:08 UTC. Time now 2014-Dec-18 20:14 UTC.
Position N 30°01' W 090°44'.
Warning: this ship's position is 14 days out of date.

Length 182 m; draft 6.3 m.

Type: Cargo ship. MMSI: 355723000.

Date/timePositionNaut miles runAvg speedWind from/ knotsBaromVisibWave heightAir tempDewpointWater temp
2014-Dec-04 11:08N 30°01' W 090°44'0 0.0
2014-Dec-04 10:32N 30°01' W 090°44'0 0.0
2014-Dec-04 09:32N 30°01' W 090°44'0 0.0
2014-Dec-04 07:32N 30°01' W 090°44'0 0.0
2014-Dec-04 05:23N 30°01' W 090°44'0 0.0
2014-Dec-04 04:17N 30°01' W 090°44'0 0.0
2014-Dec-03 10:11N 30°01' W 090°44'0 0.0
2014-Dec-03 07:29N 30°01' W 090°44'0 0.0
2014-Dec-03 03:33N 30°01' W 090°44'0 0.0
2014-Dec-03 02:33N 30°01' W 090°44'0 0.0
2014-Dec-03 01:33N 30°01' W 090°44'0 0.0
2014-Dec-02 15:24N 30°01' W 090°44'0 0.0
2014-Dec-02 14:32N 30°01' W 090°44'0 0.0
2014-Dec-02 13:33N 30°01' W 090°44'0 0.0
2014-Dec-02 12:31N 30°01' W 090°44'0 0.0
2014-Dec-02 11:33N 30°01' W 090°44'0 0.0
2014-Dec-02 10:26N 30°01' W 090°44'0 0.0
2014-Dec-02 09:33N 30°01' W 090°44'0 0.0
2014-Dec-02 08:33N 30°01' W 090°44'0 0.0
2014-Dec-02 07:31N 30°01' W 090°44'0 0.0
2014-Dec-02 06:31N 30°01' W 090°44'0 0.0
2014-Dec-02 05:33N 30°01' W 090°44'0 0.0
2014-Dec-02 04:33N 30°01' W 090°44'0 0.0
2014-Dec-02 03:33N 30°01' W 090°44'0 0.0
2014-Dec-02 02:33N 30°01' W 090°44'0 0.0
2014-Dec-02 01:04N 30°01' W 090°44'2 2.7
2014-Dec-02 00:16N 30°01' W 090°47'7 0.6
2014-Dec-01 11:24N 30°04' W 090°54'0 0.0
2014-Dec-01 10:21N 30°04' W 090°54'0 0.0
2014-Dec-01 09:30N 30°04' W 090°54'0 0.0
2014-Dec-01 08:15N 30°04' W 090°54'0 0.0
2014-Nov-30 14:27N 30°04' W 090°54'  
2014-Nov-27 05:33N 30°04' W 090°54'1 0.6
2014-Nov-27 04:32N 30°04' W 090°54'40 8.0
2014-Nov-26 23:30N 29°55' W 090°08'3 2.2
2014-Nov-26 22:15N 29°55' W 090°05'0 0.0
2014-Nov-26 20:33N 29°55' W 090°05'0 0.0
2014-Nov-26 18:30N 29°55' W 090°05'0 0.0
2014-Nov-26 10:06N 29°55' W 090°05'0 0.0
2014-Nov-25 21:30N 29°55' W 090°05'0 0.0
2014-Nov-25 18:21N 29°55' W 090°05'0 0.0
2014-Nov-25 16:30N 29°55' W 090°05'0 0.0
2014-Nov-25 12:27N 29°55' W 090°05'0 0.0
2014-Nov-25 11:30N 29°55' W 090°05'0 0.0
2014-Nov-24 13:33N 29°55' W 090°05'0 0.0
2014-Nov-24 12:12N 29°55' W 090°05'0 0.0
2014-Nov-24 11:21N 29°55' W 090°05'  
Track history (hours):
 
Tides and Currents Weather Stations Pressure Air Temp Water Temp Dewpoint Dewpoint Depression Visibility Wind Speed Wind Dir Waves Ship Positions

Jury M

Last reported at 2014-Dec-04 11:08 UTC. Time now 2014-Dec-18 20:14 UTC.
Position N 30°01' W 090°44'.
Warning: this ship's position is 14 days out of date.

Length 182 m; draft 6.3 m.

Type: Cargo ship. MMSI: 355723000.

Date/timePositionNaut miles runAvg speedWind from/ knotsBaromVisibWave heightAir tempDewpointWater temp
2014-Dec-04 11:08N 30°01' W 090°44'0 0.0
2014-Dec-04 10:32N 30°01' W 090°44'0 0.0
2014-Dec-04 09:32N 30°01' W 090°44'0 0.0
2014-Dec-04 07:32N 30°01' W 090°44'0 0.0
2014-Dec-04 05:23N 30°01' W 090°44'0 0.0
2014-Dec-04 04:17N 30°01' W 090°44'0 0.0
2014-Dec-03 10:11N 30°01' W 090°44'0 0.0
2014-Dec-03 07:29N 30°01' W 090°44'0 0.0
2014-Dec-03 03:33N 30°01' W 090°44'0 0.0
2014-Dec-03 02:33N 30°01' W 090°44'0 0.0
2014-Dec-03 01:33N 30°01' W 090°44'0 0.0
2014-Dec-02 15:24N 30°01' W 090°44'0 0.0
2014-Dec-02 14:32N 30°01' W 090°44'0 0.0
2014-Dec-02 13:33N 30°01' W 090°44'0 0.0
2014-Dec-02 12:31N 30°01' W 090°44'0 0.0
2014-Dec-02 11:33N 30°01' W 090°44'0 0.0
2014-Dec-02 10:26N 30°01' W 090°44'0 0.0
2014-Dec-02 09:33N 30°01' W 090°44'0 0.0
2014-Dec-02 08:33N 30°01' W 090°44'0 0.0
2014-Dec-02 07:31N 30°01' W 090°44'0 0.0
2014-Dec-02 06:31N 30°01' W 090°44'0 0.0
2014-Dec-02 05:33N 30°01' W 090°44'0 0.0
2014-Dec-02 04:33N 30°01' W 090°44'0 0.0
2014-Dec-02 03:33N 30°01' W 090°44'0 0.0
2014-Dec-02 02:33N 30°01' W 090°44'0 0.0
2014-Dec-02 01:04N 30°01' W 090°44'2 2.7
2014-Dec-02 00:16N 30°01' W 090°47'7 0.6
2014-Dec-01 11:24N 30°04' W 090°54'0 0.0
2014-Dec-01 10:21N 30°04' W 090°54'0 0.0
2014-Dec-01 09:30N 30°04' W 090°54'0 0.0
2014-Dec-01 08:15N 30°04' W 090°54'0 0.0
2014-Nov-30 14:27N 30°04' W 090°54'  
2014-Nov-27 05:33N 30°04' W 090°54'1 0.6
2014-Nov-27 04:32N 30°04' W 090°54'40 8.0
2014-Nov-26 23:30N 29°55' W 090°08'3 2.2
2014-Nov-26 22:15N 29°55' W 090°05'0 0.0
2014-Nov-26 20:33N 29°55' W 090°05'0 0.0
2014-Nov-26 18:30N 29°55' W 090°05'0 0.0
2014-Nov-26 10:06N 29°55' W 090°05'0 0.0
2014-Nov-25 21:30N 29°55' W 090°05'0 0.0
2014-Nov-25 18:21N 29°55' W 090°05'0 0.0
2014-Nov-25 16:30N 29°55' W 090°05'0 0.0
2014-Nov-25 12:27N 29°55' W 090°05'0 0.0
2014-Nov-25 11:30N 29°55' W 090°05'0 0.0
2014-Nov-24 13:33N 29°55' W 090°05'0 0.0
2014-Nov-24 12:12N 29°55' W 090°05'0 0.0
2014-Nov-24 11:21N 29°55' W 090°05'  

Dump ship's entire track history